createdAt,value
2022-11-05T00:02:28.477Z,10.18
2022-11-05T00:05:14.700Z,9.48
2022-11-05T00:08:02.504Z,10.30
2022-11-05T00:10:31.511Z,14.95
2022-11-05T00:13:18.076Z,8.95
2022-11-05T00:16:04.744Z,7.30
2022-11-05T00:18:32.318Z,8.43
2022-11-05T00:20:59.809Z,10.15
2022-11-05T00:23:45.671Z,11.48
2022-11-05T00:26:13.711Z,8.40
2022-11-05T00:28:44.227Z,7.85
2022-11-05T00:31:13.013Z,8.75
2022-11-05T00:33:41.225Z,9.82
2022-11-05T00:36:09.808Z,10.52
2022-11-05T00:38:37.420Z,9.20
2022-11-05T00:41:04.894Z,9.50
2022-11-05T00:43:50.989Z,11.40
2022-11-05T00:46:18.543Z,9.95
2022-11-05T00:49:04.547Z,8.63
2022-11-05T00:51:32.235Z,9.27
2022-11-05T00:53:59.695Z,12.10
2022-11-05T00:56:27.188Z,14.52
2022-11-05T00:58:56.466Z,12.23
2022-11-05T01:01:24.245Z,9.35
2022-11-05T01:03:52.154Z,11.13
2022-11-05T01:06:19.520Z,8.80
2022-11-05T01:08:47.485Z,8.88
2022-11-05T01:11:35.344Z,9.50
2022-11-05T01:14:07.803Z,10.57
2022-11-05T01:16:36.025Z,7.85
2022-11-05T01:19:04.644Z,7.70
2022-11-05T01:21:32.030Z,9.93
2022-11-05T01:23:59.459Z,8.95
2022-11-05T01:26:27.508Z,11.52
2022-11-05T01:28:55.802Z,8.82
2022-11-05T01:31:23.916Z,12.65
2022-11-05T01:33:51.824Z,12.43
2022-11-05T01:36:19.903Z,12.88
2022-11-05T01:38:47.127Z,11.00
2022-11-05T01:41:14.460Z,14.10
2022-11-05T01:43:49.639Z,10.10
2022-11-05T01:46:23.269Z,10.15
2022-11-05T01:48:51.636Z,9.52
2022-11-05T01:51:20.447Z,9.32
2022-11-05T01:53:56.248Z,8.63
2022-11-05T01:56:29.490Z,9.65
2022-11-05T01:59:04.120Z,7.75
2022-11-05T02:01:32.237Z,12.82
2022-11-05T02:04:01.673Z,9.63
2022-11-05T02:06:29.852Z,12.88
2022-11-05T02:08:57.196Z,10.05
2022-11-05T02:11:24.890Z,9.60
2022-11-05T02:13:52.359Z,12.13
2022-11-05T02:16:38.525Z,9.95
2022-11-05T02:19:06.002Z,9.93
2022-11-05T02:21:52.516Z,10.80
2022-11-05T02:24:32.426Z,11.60
2022-11-05T02:27:08.122Z,12.40
2022-11-05T02:29:38.276Z,11.05
2022-11-05T02:32:15.863Z,8.90
2022-11-05T02:34:56.276Z,10.52
2022-11-05T02:37:45.168Z,12.73
2022-11-05T02:40:24.285Z,8.60
2022-11-05T02:43:06.892Z,8.88
2022-11-05T02:45:34.199Z,11.77
2022-11-05T02:48:04.640Z,11.43
2022-11-05T02:50:35.865Z,12.13
2022-11-05T02:53:04.854Z,14.65
2022-11-05T02:55:38.006Z,13.75
2022-11-05T02:58:06.479Z,13.65
2022-11-05T03:00:40.236Z,14.77
2022-11-05T03:03:12.633Z,13.57
2022-11-05T03:06:06.466Z,17.85
2022-11-05T03:08:43.578Z,17.00
2022-11-05T03:11:15.730Z,17.08
2022-11-05T03:13:45.820Z,14.13
2022-11-05T03:16:17.480Z,12.02
2022-11-05T03:18:56.199Z,13.95
2022-11-05T03:21:29.960Z,12.65
2022-11-05T03:23:59.692Z,15.02
2022-11-05T03:26:31.946Z,11.70
2022-11-05T03:29:06.760Z,10.98
2022-11-05T03:31:35.063Z,13.77
2022-11-05T03:34:04.716Z,12.38
2022-11-05T03:36:34.001Z,14.45
2022-11-05T03:39:04.009Z,15.18
2022-11-05T03:41:33.139Z,14.20
2022-11-05T03:44:02.991Z,17.00
2022-11-05T03:46:32.779Z,14.00
2022-11-05T03:49:02.207Z,13.07
2022-11-05T03:51:48.548Z,14.55
2022-11-05T03:54:16.569Z,13.45
2022-11-05T03:56:47.052Z,13.90
2022-11-05T03:59:14.927Z,15.38
2022-11-05T04:01:42.812Z,12.68
2022-11-05T04:04:10.703Z,16.20
2022-11-05T04:06:56.664Z,13.15
2022-11-05T04:09:42.547Z,16.88
2022-11-05T04:12:29.945Z,11.68
2022-11-05T04:14:57.528Z,13.70
2022-11-05T04:17:24.926Z,15.23
2022-11-05T04:20:11.137Z,14.52
2022-11-05T04:22:56.898Z,13.75
2022-11-05T04:25:24.393Z,19.70
2022-11-05T04:27:52.101Z,18.45
2022-11-05T04:30:20.300Z,13.93
2022-11-05T04:33:11.706Z,12.38
2022-11-05T04:35:40.819Z,14.95
2022-11-05T04:38:09.776Z,15.10
2022-11-05T04:40:37.615Z,18.10
2022-11-05T04:43:06.549Z,12.43
2022-11-05T04:45:37.294Z,17.95
2022-11-05T04:48:05.064Z,17.02
2022-11-05T04:50:33.160Z,16.92
2022-11-05T04:53:01.390Z,17.50
2022-11-05T04:55:29.247Z,14.95
2022-11-05T04:57:56.836Z,13.90
2022-11-05T05:00:24.914Z,16.77
2022-11-05T05:02:52.554Z,13.57
2022-11-05T05:05:19.985Z,16.30
2022-11-05T05:07:47.645Z,15.23
2022-11-05T05:10:15.252Z,15.52
2022-11-05T05:12:42.561Z,14.55
2022-11-05T05:15:10.200Z,16.00
2022-11-05T05:17:37.675Z,16.80
2022-11-05T05:20:23.787Z,14.15
2022-11-05T05:22:55.277Z,17.13
2022-11-05T05:25:23.121Z,16.30
2022-11-05T05:27:50.893Z,15.88
2022-11-05T05:30:18.812Z,16.52
2022-11-05T05:32:46.460Z,16.48
2022-11-05T05:35:14.097Z,24.33
2022-11-05T05:37:41.805Z,20.48
2022-11-05T05:40:09.891Z,17.63
2022-11-05T05:42:42.725Z,17.75
2022-11-05T05:45:10.889Z,25.80
2022-11-05T05:47:38.252Z,17.85
2022-11-05T05:50:05.781Z,18.05
2022-11-05T05:52:33.094Z,19.10
2022-11-05T05:55:00.819Z,19.15
2022-11-05T05:57:28.131Z,17.88
2022-11-05T05:59:55.738Z,20.00
2022-11-05T06:02:23.256Z,16.50
2022-11-05T06:04:51.092Z,21.58
2022-11-05T06:07:18.441Z,16.05
2022-11-05T06:09:46.005Z,17.55
2022-11-05T06:12:13.375Z,19.15
2022-11-05T06:14:40.814Z,21.45
2022-11-05T06:17:08.480Z,20.25
2022-11-05T06:19:36.213Z,16.58
2022-11-05T06:22:04.146Z,17.08
2022-11-05T06:24:31.451Z,20.65
2022-11-05T06:26:59.033Z,16.73
2022-11-05T06:29:26.809Z,13.98
2022-11-05T06:31:54.441Z,15.88
2022-11-05T06:34:22.104Z,17.73
2022-11-05T06:36:49.410Z,15.20
2022-11-05T06:39:16.776Z,15.88
2022-11-05T06:42:11.912Z,15.30
2022-11-05T06:44:32.948Z,16.83
2022-11-05T06:47:00.465Z,15.00
2022-11-05T06:49:27.740Z,16.42
2022-11-05T06:51:55.108Z,18.55
2022-11-05T06:54:22.742Z,19.30
2022-11-05T06:56:50.385Z,17.55
2022-11-05T06:59:18.064Z,18.27
2022-11-05T07:01:45.489Z,19.73
2022-11-05T07:04:13.682Z,18.73
2022-11-05T07:06:41.101Z,18.77
2022-11-05T07:09:08.416Z,15.93
2022-11-05T07:11:35.902Z,16.98
2022-11-05T07:14:03.566Z,15.68
2022-11-05T07:16:31.432Z,18.67
2022-11-05T07:18:58.913Z,21.40
2022-11-05T07:21:26.680Z,21.13
2022-11-05T07:23:54.254Z,16.40
2022-11-05T07:26:22.753Z,18.58
2022-11-05T07:28:50.246Z,21.33
2022-11-05T07:31:17.892Z,15.68
2022-11-05T07:33:45.195Z,15.95
2022-11-05T07:36:12.732Z,20.10
2022-11-05T07:38:40.391Z,19.05
2022-11-05T07:41:07.899Z,18.20
2022-11-05T07:43:35.199Z,12.95
2022-11-05T07:46:02.638Z,15.40
2022-11-05T07:48:29.961Z,17.90
2022-11-05T07:50:57.406Z,15.50
2022-11-05T07:53:25.442Z,16.25
2022-11-05T07:55:52.892Z,18.33
2022-11-05T07:58:20.579Z,14.60
2022-11-05T08:00:48.310Z,13.80
2022-11-05T08:03:17.358Z,16.42
2022-11-05T08:05:47.033Z,14.95
2022-11-05T08:08:15.723Z,12.63
2022-11-05T08:10:43.798Z,13.35
2022-11-05T08:13:12.075Z,12.85
2022-11-05T08:15:39.761Z,14.98
2022-11-05T08:18:08.914Z,14.75
2022-11-05T08:20:37.258Z,14.82
2022-11-05T08:23:04.892Z,12.70
2022-11-05T08:25:32.621Z,14.18
2022-11-05T08:28:01.353Z,12.48
2022-11-05T08:30:29.058Z,16.38
2022-11-05T08:33:00.215Z,15.43
2022-11-05T08:35:28.147Z,14.65
2022-11-05T08:37:59.451Z,16.63
2022-11-05T08:40:27.335Z,14.45
2022-11-05T08:42:57.340Z,13.13
2022-11-05T08:45:25.857Z,12.63
2022-11-05T08:47:59.398Z,12.23
2022-11-05T08:50:27.999Z,14.82
2022-11-05T08:52:55.700Z,12.63
2022-11-05T08:55:23.340Z,13.77
2022-11-05T08:57:55.813Z,13.35
2022-11-05T09:00:23.524Z,12.63
2022-11-05T09:02:51.081Z,10.88
2022-11-05T09:05:18.856Z,10.10
2022-11-05T09:07:47.160Z,11.00
2022-11-05T09:10:15.296Z,10.98
2022-11-05T09:12:42.693Z,14.82
2022-11-05T09:15:10.337Z,9.60
2022-11-05T09:17:37.841Z,9.23
2022-11-05T09:20:07.226Z,9.07
2022-11-05T09:22:37.861Z,9.32
2022-11-05T09:25:08.463Z,7.90
2022-11-05T09:27:36.337Z,7.30
2022-11-05T09:30:03.740Z,8.35
2022-11-05T09:32:34.246Z,6.85
2022-11-05T09:35:01.994Z,7.53
2022-11-05T09:37:30.068Z,8.18
2022-11-05T09:39:57.403Z,10.10
2022-11-05T09:42:27.427Z,7.78
2022-11-05T09:45:18.258Z,11.45
2022-11-05T09:47:53.866Z,6.93
2022-11-05T09:50:25.677Z,7.18
2022-11-05T09:52:53.016Z,9.35
2022-11-05T09:55:26.484Z,6.13
2022-11-05T09:57:56.780Z,8.50
2022-11-05T10:00:24.890Z,5.53
2022-11-05T10:02:59.078Z,8.35
2022-11-05T10:05:27.213Z,7.18
2022-11-05T10:08:00.503Z,5.85
2022-11-05T10:10:35.232Z,5.15
2022-11-05T10:13:17.123Z,11.45
2022-11-05T10:15:54.845Z,4.75
2022-11-05T10:18:37.346Z,5.38
2022-11-05T10:21:04.958Z,5.63
2022-11-05T10:23:33.140Z,13.70
2022-11-05T10:26:03.761Z,10.23
2022-11-05T10:28:33.008Z,6.50
2022-11-05T10:31:01.789Z,5.82
2022-11-05T10:33:35.153Z,4.88
2022-11-05T10:36:07.254Z,7.30
2022-11-05T10:38:35.000Z,5.22
2022-11-05T10:41:02.267Z,5.45
2022-11-05T10:43:32.437Z,5.63
2022-11-05T10:46:24.962Z,5.72
2022-11-05T10:48:52.426Z,3.80
2022-11-05T10:51:19.886Z,3.95
2022-11-05T10:53:54.872Z,5.47
2022-11-05T10:56:35.406Z,9.65
2022-11-05T10:59:07.908Z,7.28
2022-11-05T11:01:37.370Z,8.23
2022-11-05T11:04:13.917Z,3.75
2022-11-05T11:06:45.372Z,9.10
2022-11-05T11:09:20.158Z,5.45
2022-11-05T11:11:55.040Z,5.00
2022-11-05T11:14:22.656Z,4.72
2022-11-05T11:16:51.868Z,5.28
2022-11-05T11:19:24.850Z,8.85
2022-11-05T11:22:12.450Z,5.50
2022-11-05T11:24:39.975Z,6.80
2022-11-05T11:27:10.583Z,8.73
2022-11-05T11:29:42.886Z,7.10
2022-11-05T11:32:16.124Z,8.23
2022-11-05T11:34:44.800Z,8.05
2022-11-05T11:37:19.221Z,6.85
2022-11-05T11:39:49.234Z,7.43
2022-11-05T11:42:31.449Z,9.93
2022-11-05T11:45:00.700Z,7.05
2022-11-05T11:47:30.287Z,8.60
2022-11-05T11:50:02.380Z,9.30
2022-11-05T11:52:31.195Z,8.40
2022-11-05T11:55:18.151Z,10.13
2022-11-05T11:57:50.722Z,12.20
2022-11-05T12:00:18.907Z,10.60
2022-11-05T12:03:04.747Z,12.02
2022-11-05T12:05:32.101Z,8.68
2022-11-05T12:08:18.360Z,6.90
2022-11-05T12:11:01.428Z,6.22
2022-11-05T12:13:47.208Z,9.00
2022-11-05T12:16:35.827Z,7.80
2022-11-05T12:19:20.683Z,9.65
2022-11-05T12:21:52.871Z,7.13
2022-11-05T12:24:23.931Z,6.43
2022-11-05T12:26:59.344Z,8.30
2022-11-05T12:29:35.876Z,5.50
2022-11-05T12:32:06.540Z,6.07
2022-11-05T12:34:39.793Z,6.32
2022-11-05T12:37:26.069Z,12.63
2022-11-05T12:40:02.818Z,7.97
2022-11-05T12:42:33.794Z,11.18
2022-11-05T12:45:19.626Z,6.30
2022-11-05T12:48:06.190Z,7.88
2022-11-05T12:50:39.704Z,15.57
2022-11-05T12:53:13.180Z,10.13
2022-11-05T12:55:48.063Z,12.38
2022-11-05T12:58:32.289Z,11.13
2022-11-05T13:01:03.312Z,8.70
2022-11-05T13:03:33.564Z,11.80
2022-11-05T13:06:14.676Z,9.93
2022-11-05T13:08:42.354Z,8.27
2022-11-05T13:11:29.248Z,10.63
2022-11-05T13:13:59.607Z,7.93
2022-11-05T13:16:29.901Z,8.25
2022-11-05T13:19:00.361Z,7.93
2022-11-05T13:21:29.714Z,4.15
2022-11-05T13:24:11.948Z,4.32
2022-11-05T13:26:51.242Z,4.57
2022-11-05T13:29:18.693Z,4.35
2022-11-05T13:31:52.458Z,3.30
2022-11-05T13:34:19.940Z,2.10
2022-11-05T13:37:13.135Z,2.97
2022-11-05T13:39:48.885Z,2.90
2022-11-05T13:42:22.155Z,2.97
2022-11-05T13:45:07.912Z,3.33
2022-11-05T13:47:41.427Z,5.38
2022-11-05T13:50:27.705Z,4.88
2022-11-05T13:53:09.349Z,4.88
2022-11-05T13:55:57.958Z,7.18
2022-11-05T13:58:25.269Z,6.20
2022-11-05T14:01:07.801Z,6.60
2022-11-05T14:03:35.339Z,5.97
2022-11-05T14:06:07.264Z,8.20
2022-11-05T14:08:39.883Z,7.95
2022-11-05T14:11:21.375Z,6.47
2022-11-05T14:13:51.832Z,6.75
2022-11-05T14:16:23.377Z,7.85
2022-11-05T14:18:51.454Z,12.48
2022-11-05T14:21:27.928Z,11.60
2022-11-05T14:23:59.570Z,9.90
2022-11-05T14:26:33.722Z,11.18
2022-11-05T14:29:04.235Z,10.20
2022-11-05T14:31:54.605Z,9.25
2022-11-05T14:34:42.377Z,8.18
2022-11-05T14:37:12.917Z,11.98
2022-11-05T14:39:44.177Z,9.20
2022-11-05T14:42:26.304Z,9.25
2022-11-05T14:44:57.044Z,22.55
2022-11-05T14:47:25.323Z,9.85
2022-11-05T14:49:54.190Z,4.63
2022-11-05T14:52:21.712Z,4.07
2022-11-05T14:54:51.244Z,4.00
2022-11-05T14:57:37.660Z,3.00
2022-11-05T15:00:05.982Z,5.93
2022-11-05T15:02:35.752Z,6.63
2022-11-05T15:05:26.116Z,6.50
2022-11-05T15:07:57.538Z,7.72
2022-11-05T15:10:28.423Z,4.38
2022-11-05T15:12:57.845Z,4.28
2022-11-05T15:15:39.741Z,3.40
2022-11-05T15:18:14.952Z,6.72
2022-11-05T15:20:44.467Z,4.85
2022-11-05T15:23:14.061Z,8.82
2022-11-05T15:25:52.966Z,9.32
2022-11-05T15:28:40.049Z,6.22
2022-11-05T15:31:21.659Z,5.75
2022-11-05T15:33:49.289Z,5.70
2022-11-05T15:36:32.660Z,3.83
2022-11-05T15:39:28.863Z,4.70
2022-11-05T15:41:48.251Z,4.82
2022-11-05T15:44:26.185Z,4.68
2022-11-05T15:47:13.374Z,5.22
2022-11-05T15:49:41.205Z,5.53
2022-11-05T15:52:11.480Z,5.88
2022-11-05T15:54:39.024Z,5.35
2022-11-05T15:57:06.882Z,7.95
2022-11-05T15:59:35.432Z,6.82
2022-11-05T16:02:22.206Z,8.85
2022-11-05T16:04:50.221Z,10.63
2022-11-05T16:07:18.029Z,8.23
2022-11-05T16:10:15.043Z,11.40
2022-11-05T16:12:42.315Z,17.02
2022-11-05T16:15:09.754Z,14.43
2022-11-05T16:17:40.094Z,13.57
2022-11-05T16:20:27.859Z,11.82
2022-11-05T16:22:56.794Z,9.35
2022-11-05T16:25:27.707Z,8.02
2022-11-05T16:27:55.297Z,10.77
2022-11-05T16:30:23.108Z,7.93
2022-11-05T16:32:50.594Z,5.78
2022-11-05T16:35:22.427Z,4.95
2022-11-05T16:37:52.334Z,5.43
2022-11-05T16:40:21.352Z,5.95
2022-11-05T16:42:51.576Z,5.22
2022-11-05T16:45:23.625Z,5.60
2022-11-05T16:47:50.896Z,5.65
2022-11-05T16:50:25.958Z,5.53
2022-11-05T16:52:53.987Z,7.18
2022-11-05T16:55:22.092Z,5.95
2022-11-05T16:57:51.935Z,7.13
2022-11-05T17:00:20.583Z,5.20
2022-11-05T17:02:48.312Z,9.02
2022-11-05T17:05:26.277Z,7.72
2022-11-05T17:07:54.067Z,9.00
2022-11-05T18:04:24.810Z,8.40
2022-11-05T18:06:52.258Z,7.80
2022-11-05T18:09:20.210Z,7.97
2022-11-05T18:11:47.750Z,7.93
2022-11-05T18:14:17.708Z,6.32
2022-11-05T18:16:50.524Z,9.88
2022-11-05T18:38:34.757Z,10.75
2022-11-05T18:41:08.372Z,14.13
2022-11-05T18:43:36.028Z,10.35
2022-11-05T18:46:03.774Z,12.05
2022-11-05T18:48:31.224Z,12.93
2022-11-05T18:51:01.865Z,10.10
2022-11-05T18:53:29.942Z,9.95
2022-11-05T18:55:57.435Z,14.00
2022-11-05T18:58:24.899Z,11.30
2022-11-05T19:00:52.617Z,9.75
2022-11-05T19:03:20.069Z,10.55
2022-11-05T19:05:47.433Z,9.60
2022-11-05T19:08:15.182Z,11.07
2022-11-05T19:10:43.004Z,11.30
2022-11-05T19:13:10.717Z,11.15
2022-11-05T19:15:38.101Z,9.82
2022-11-05T19:18:05.505Z,12.57
2022-11-05T19:20:37.660Z,10.18
2022-11-05T19:23:06.714Z,8.13
2022-11-05T19:25:34.447Z,11.20
2022-11-05T19:28:03.186Z,11.82
2022-11-05T19:30:30.543Z,9.70
2022-11-05T19:32:57.995Z,10.43
2022-11-05T19:35:27.038Z,9.80
2022-11-05T19:37:54.811Z,8.40
2022-11-05T19:40:22.453Z,10.10
2022-11-05T19:42:49.967Z,11.85
2022-11-05T19:45:38.756Z,13.48
2022-11-05T19:48:04.777Z,11.48
2022-11-05T19:50:32.978Z,10.40
2022-11-05T19:53:00.739Z,11.27
2022-11-05T19:55:28.776Z,12.13
2022-11-05T19:57:56.394Z,8.57
2022-11-05T20:00:23.882Z,9.05
2022-11-05T20:02:51.754Z,8.48
2022-11-05T20:05:19.444Z,10.00
2022-11-05T20:07:52.515Z,10.50
2022-11-05T20:10:20.644Z,9.80
2022-11-05T20:12:48.252Z,11.80
2022-11-05T20:15:15.504Z,8.13
2022-11-05T20:17:43.009Z,12.93
2022-11-05T20:20:10.600Z,13.15
2022-11-05T20:22:38.828Z,11.15
2022-11-05T20:25:07.006Z,9.35
2022-11-05T20:27:34.506Z,10.73
2022-11-05T20:30:02.220Z,9.57
2022-11-05T20:32:29.823Z,8.90
2022-11-05T20:34:57.245Z,8.63
2022-11-05T20:37:25.014Z,8.70
2022-11-05T20:39:52.321Z,8.35
2022-11-05T20:42:20.047Z,8.75
2022-11-05T20:44:47.449Z,10.15
2022-11-05T20:47:14.753Z,8.95
2022-11-05T20:49:42.392Z,10.48
2022-11-05T20:52:10.054Z,9.63
2022-11-05T20:54:38.387Z,9.73
2022-11-05T20:57:06.052Z,10.00
2022-11-05T20:59:33.398Z,10.13
2022-11-05T21:02:01.132Z,9.63
2022-11-05T21:04:28.989Z,11.32
2022-11-05T21:06:56.550Z,7.97
2022-11-05T21:09:24.130Z,10.57
2022-11-05T21:12:18.887Z,9.90
2022-11-05T21:14:46.680Z,8.68
2022-11-05T21:17:14.629Z,7.50
2022-11-05T21:19:42.207Z,11.90
2022-11-05T21:22:09.694Z,11.02
2022-11-05T21:24:37.421Z,14.60
2022-11-05T21:27:05.172Z,12.38
2022-11-05T21:29:32.877Z,17.42
2022-11-05T21:32:00.406Z,11.38
2022-11-05T21:34:28.257Z,15.13
2022-11-05T21:36:55.566Z,14.05
2022-11-05T21:39:23.262Z,13.95
2022-11-05T21:41:50.727Z,16.30
2022-11-05T21:44:18.383Z,12.70
2022-11-05T21:46:46.317Z,14.95
2022-11-05T21:49:15.027Z,13.65
2022-11-05T21:52:01.273Z,12.73
2022-11-05T21:54:47.665Z,12.73
2022-11-05T21:57:34.902Z,12.85
2022-11-05T22:00:04.031Z,11.95
2022-11-05T22:02:31.542Z,12.73
2022-11-05T22:05:00.308Z,11.20
2022-11-05T22:07:29.701Z,12.95
2022-11-05T22:09:57.370Z,10.98
2022-11-05T22:12:25.639Z,10.88
2022-11-05T22:14:53.906Z,15.15
2022-11-05T22:17:22.164Z,13.57
2022-11-05T22:19:50.255Z,10.95
2022-11-05T22:22:17.807Z,13.23
2022-11-05T22:24:45.791Z,16.50
2022-11-05T22:27:14.686Z,13.98
2022-11-05T22:29:42.794Z,10.15
2022-11-05T22:32:11.225Z,14.85
2022-11-05T22:34:38.958Z,11.73
2022-11-05T22:37:06.847Z,9.13
2022-11-05T22:39:34.571Z,12.18
2022-11-05T22:42:07.090Z,13.68
2022-11-05T22:44:36.283Z,18.30
2022-11-05T22:47:03.794Z,18.85
2022-11-05T22:49:31.578Z,29.38
2022-11-05T22:51:59.265Z,20.77
2022-11-05T22:54:26.571Z,19.88
2022-11-05T22:56:54.022Z,20.85
2022-11-05T22:59:21.799Z,20.85
2022-11-05T23:01:49.664Z,21.63
2022-11-05T23:04:17.493Z,18.60
2022-11-05T23:07:03.723Z,17.45
2022-11-05T23:09:51.350Z,18.20
2022-11-05T23:12:24.383Z,15.07
2022-11-05T23:14:52.366Z,17.58
2022-11-05T23:17:38.771Z,16.67
2022-11-05T23:20:26.234Z,13.57
2022-11-05T23:23:12.718Z,15.73
2022-11-05T23:25:40.182Z,12.57
2022-11-05T23:28:10.414Z,13.95
2022-11-05T23:30:59.558Z,13.18
2022-11-05T23:33:27.253Z,10.98
2022-11-05T23:36:13.832Z,11.77
2022-11-05T23:38:41.668Z,15.10
2022-11-05T23:41:28.033Z,14.35
2022-11-05T23:44:14.015Z,16.35
2022-11-05T23:47:00.318Z,11.88
2022-11-05T23:49:28.558Z,11.38
2022-11-05T23:51:56.135Z,11.15
2022-11-05T23:54:23.746Z,12.45
2022-11-05T23:56:51.600Z,13.60
2022-11-05T23:59:19.877Z,11.18
